Flight Track Log - Related Links

Times and Time Zones

All times are in EDT time to prevent confusion due to time zone crossing. See the AAL1624 flight status page for this flight to view local times or setup timezone preferences in your user account.

Time Position Orientation Groundspeed Altitude Reporting Facility
EDT Latitude Longitude Course Direction KTS MPH feet Rate Location/Type
Sat 11:14:00 PM 41.9114 -88.1548 242° Southwest  Level FlightAware Approximate
Sat 11:14:18 PM 41.9681 -88.0681 253° West 237 273 5,600  Level Chicago Center
Sat 11:15:00 PM 41.8899 -88.2838 255° West  Level FlightAware Approximate
Sat 11:15:18 PM 41.9683 -88.1689 270° West 263 303 9,500  Level Chicago Center
Sat 11:16:00 PM 41.8489 -88.4058 255° West  Level FlightAware Approximate
Sat 11:16:19 PM 41.9647 -88.2722 267° West 276 318 13,000  Level Chicago Center
Sat 11:17:00 PM 41.8219 -88.5353 254° West  Level FlightAware Approximate
Sat 11:17:19 PM 41.9342 -88.3917 251° West 335 386 14,800  Level Chicago Center
Sat 11:18:00 PM 41.7940 -88.6617 254° West  Level FlightAware Approximate
Sat 11:18:20 PM 41.9008 -88.5208 251° West 364 419 16,900  Level Chicago Center
Sat 11:19:00 PM 41.7659 -88.7879 253° West  Level FlightAware Approximate
Sat 11:19:20 PM 41.8656 -88.6531 250° West 378 435 19,300  Level Chicago Center
Sat 11:20:20 PM 41.8286 -88.7903 250° West 393 452 22,000 2,579 Climbing Chicago Center
Sat 11:21:21 PM 41.7911 -88.9336 251° West 409 471 24,500 2,380 Climbing Chicago Center
Sat 11:22:21 PM 41.7525 -89.0758 250° West 410 472 26,800 2,250 Climbing Chicago Center
Sat 11:23:21 PM 41.7139 -89.2214 250° West 419 482 29,000 2,231 Climbing Chicago Center
Sat 11:24:22 PM 41.6758 -89.3650 251° West 414 476 31,300 2,182 Climbing Chicago Center
Sat 11:25:22 PM 41.6369 -89.5047 250° West 406 467 33,400 1,950 Climbing Chicago Center
Sat 11:26:22 PM 41.5947 -89.6608 250° West 399 459 35,200 1,537 Climbing Chicago Center
Sat 11:27:23 PM 41.5567 -89.8017 250° West 405 466 36,500 1,190 Climbing Chicago Center
Sat 11:28:23 PM 41.5172 -89.9433 250° West 409 471 37,600 1,190 Climbing Chicago Center
Sat 11:29:24 PM 41.4783 -90.0850 250° West 409 471 38,900 1,091 Climbing Chicago Center
Sat 11:30:24 PM 41.4394 -90.2236 250° West 404 465 39,800 550 Climbing Chicago Center
Sat 11:31:24 PM 41.4000 -90.3653 250° West 408 470 40,000 100 Climbing Chicago Center
Sat 11:32:24 PM 41.3600 -90.5081 250° West 412 474 40,000  Level Chicago Center
Sat 11:33:25 PM 41.3108 -90.6519 246° West 432 497 40,000  Level Chicago Center
Sat 11:34:25 PM 41.2417 -90.7739 233° Southwest 417 480 40,000  Level Chicago Center
Sat 11:35:25 PM 41.1700 -90.8947 232° Southwest 416 479 40,000  Level Chicago Center
Sat 11:36:26 PM 41.0978 -91.0172 232° Southwest 420 483 40,000  Level Chicago Center
Sat 11:37:26 PM 41.0275 -91.1347 232° Southwest 410 472 40,000  Level Chicago Center
Sat 11:38:27 PM 40.9558 -91.2544 232° Southwest 414 476 40,000  Level Chicago Center
Sat 11:39:27 PM 40.8844 -91.3747 232° Southwest 410 472 40,000  Level Chicago Center
Sat 11:40:27 PM 40.8131 -91.4903 231° Southwest 409 471 40,000  Level Chicago Center
Sat 11:41:27 PM 40.7436 -91.6069 232° Southwest 407 468 40,000  Level Chicago Center
Sat 11:42:27 PM 40.6719 -91.7233 231° Southwest 410 472 40,000  Level Chicago Center
Sat 11:43:37 PM 40.6039 -91.8731 239° Southwest 405 466 40,000 -273 Level Kansas City Center
Sat 11:44:39 PM 40.5572 -92.0075 245° Southwest 405 466 39,400 -738 Descending Kansas City Center
Sat 11:45:39 PM 40.5083 -92.1403 244° Southwest 407 468 38,500 -942 Descending Kansas City Center
Sat 11:46:40 PM 40.4597 -92.2739 244° Southwest 408 470 37,500 -992 Descending Kansas City Center
Sat 11:47:40 PM 40.4083 -92.4131 244° Southwest 412 474 36,500 -958 Descending Kansas City Center
Sat 11:48:39 PM 40.3583 -92.5489 244° Southwest 414 476 35,600 -942 Descending Kansas City Center
Sat 11:49:41 PM 40.3039 -92.6983 245° Southwest 410 472 34,600 -992 Descending Kansas City Center
Sat 11:50:40 PM 40.2547 -92.8239 243° Southwest 405 466 33,600 -958 Descending Kansas City Center
Sat 11:51:40 PM 40.2039 -92.9475 242° Southwest 404 465 32,700 -1,869 Descending Kansas City Center
Sat 11:52:42 PM 40.1378 -93.0731 235° Southwest 413 475 29,800 -2,732 Descending Kansas City Center
Sat 11:53:43 PM 40.0758 -93.1942 236° Southwest 408 470 27,100 -2,622 Descending Kansas City Center
Sat 11:54:41 PM 40.0192 -93.3139 238° Southwest 395 455 24,600 -2,450 Descending Kansas City Center
Sat 11:55:43 PM 39.9608 -93.4258 236° Southwest 380 437 22,200 -2,293 Descending Kansas City Center
Sat 11:56:44 PM 39.9053 -93.5344 236° Southwest 368 423 19,900 -2,231 Descending Kansas City Center
Sat 11:57:44 PM 39.8519 -93.6400 237° Southwest 356 410 17,700 -2,218 Descending Kansas City Center
Sat 11:58:43 PM 39.7964 -93.7481 236° Southwest 343 395 15,500 -2,331 Descending Kansas City Center
Sat 11:59:45 PM 39.7392 -93.8628 237° Southwest 339 390 13,000 -1,721 Descending Kansas City Center
Sun 12:00:45 AM 39.6919 -93.9558 237° Southwest 322 371 12,000 -694 Descending Kansas City Center
Sun 12:01:46 AM 39.6539 -94.0442 241° Southwest 295 339 11,600 -645 Descending Kansas City Center
Sun 12:02:46 AM 39.6228 -94.1211 242° Southwest 252 290 10,700 -1,250 Descending Kansas City Center
Sun 12:03:46 AM 39.5864 -94.2072 241° Southwest 245 282 9,100 -1,587 Descending Kansas City Center
Sun 12:04:47 AM 39.5553 -94.2811 241° Southwest 245 282 7,500 -1,488 Descending Kansas City Center
Sun 12:05:47 AM 39.5225 -94.3572 241° Southwest 251 289 6,100 -1,400 Descending Kansas City Center
Sun 12:06:47 AM 39.4858 -94.4444 241° Southwest 247 284 4,700 -1,041 Descending Kansas City Center
Sun 12:07:48 AM 39.4561 -94.5150 241° Southwest 236 272 4,000 -689 Descending Kansas City Center

Login

Don't have an account? Register now (free) for customized features, flight alerts, and more!